createdAt,value
2022-09-26T00:00:23.934Z,9.80
2022-09-26T00:02:53.008Z,9.80
2022-09-26T00:05:34.782Z,9.70
2022-09-26T00:08:06.106Z,9.70
2022-09-26T00:10:39.861Z,9.80
2022-09-26T00:13:08.390Z,9.80
2022-09-26T00:15:38.926Z,9.70
2022-09-26T00:18:08.877Z,9.80
2022-09-26T00:20:51.836Z,9.70
2022-09-26T00:23:20.874Z,9.70
2022-09-26T00:25:51.591Z,9.70
2022-09-26T00:28:21.019Z,9.70
2022-09-26T00:30:49.893Z,9.70
2022-09-26T00:33:18.707Z,9.80
2022-09-26T00:35:55.188Z,9.70
2022-09-26T00:38:24.511Z,9.80
2022-09-26T00:43:40.316Z,9.70
2022-09-26T00:46:22.652Z,9.80
2022-09-26T00:48:57.941Z,9.80
2022-09-26T00:51:32.716Z,9.80
2022-09-26T00:54:02.625Z,9.80
2022-09-26T00:56:35.304Z,9.80
2022-09-26T00:59:08.806Z,9.90
2022-09-26T01:01:38.859Z,9.90
2022-09-26T01:04:09.537Z,9.90
2022-09-26T01:06:42.858Z,9.90
2022-09-26T01:09:12.714Z,9.90
2022-09-26T01:11:55.103Z,9.90
2022-09-26T01:14:33.707Z,10.00
2022-09-26T01:17:06.144Z,9.90
2022-09-26T01:19:44.596Z,9.90
2022-09-26T01:22:43.069Z,10.00
2022-09-26T01:25:25.802Z,10.00
2022-09-26T01:28:05.738Z,9.90
2022-09-26T01:30:45.508Z,9.90
2022-09-26T01:33:55.939Z,9.80
2022-09-26T01:37:05.708Z,9.80
2022-09-26T01:39:45.988Z,9.70
2022-09-26T01:42:34.971Z,9.70
2022-09-26T01:45:14.745Z,9.70
2022-09-26T01:47:56.570Z,9.70
2022-09-26T01:50:31.917Z,9.70
2022-09-26T01:53:09.248Z,9.60
2022-09-26T01:55:40.516Z,9.60
2022-09-26T01:58:21.916Z,9.60
2022-09-26T02:00:54.898Z,9.50
2022-09-26T02:03:41.826Z,9.50
2022-09-26T02:06:15.469Z,9.50
2022-09-26T02:08:47.588Z,9.50
2022-09-26T02:11:18.924Z,9.50
2022-09-26T02:13:53.826Z,9.40
2022-09-26T02:16:27.178Z,9.40
2022-09-26T02:19:11.222Z,9.40
2022-09-26T02:21:43.355Z,9.40
2022-09-26T02:24:17.803Z,9.50
2022-09-26T02:26:46.743Z,9.50
2022-09-26T02:29:24.263Z,9.50
2022-09-26T02:32:05.147Z,9.50
2022-09-26T02:34:36.524Z,9.50
2022-09-26T02:37:05.810Z,9.50
2022-09-26T02:39:35.268Z,9.50
2022-09-26T02:42:16.274Z,9.60
2022-09-26T02:45:17.887Z,9.60
2022-09-26T02:48:11.771Z,9.50
2022-09-26T02:51:16.661Z,9.50
2022-09-26T02:54:14.176Z,9.40
2022-09-26T02:56:57.052Z,9.30
2022-09-26T02:59:37.575Z,9.30
2022-09-26T03:02:16.060Z,9.20
2022-09-26T03:04:55.317Z,9.20
2022-09-26T03:07:36.241Z,9.10
2022-09-26T03:10:11.547Z,9.10
2022-09-26T03:12:40.965Z,9.10
2022-09-26T03:15:15.128Z,9.00
2022-09-26T03:17:51.782Z,9.00
2022-09-26T03:20:26.335Z,8.90
2022-09-26T03:22:55.864Z,8.90
2022-09-26T03:25:28.296Z,8.90
2022-09-26T03:27:57.090Z,8.80
2022-09-26T03:30:26.144Z,8.80
2022-09-26T03:32:54.799Z,8.70
2022-09-26T03:35:23.189Z,8.70
2022-09-26T03:37:51.664Z,8.70
2022-09-26T03:40:22.228Z,8.60
2022-09-26T03:42:50.641Z,8.60
2022-09-26T03:45:22.044Z,8.60
2022-09-26T03:47:56.104Z,8.50
2022-09-26T03:50:24.700Z,8.50
2022-09-26T03:52:52.921Z,8.50
2022-09-26T03:55:22.868Z,8.40
2022-09-26T03:57:50.986Z,8.30
2022-09-26T04:00:19.860Z,8.30
2022-09-26T04:02:49.668Z,8.30
2022-09-26T04:05:19.313Z,8.30
2022-09-26T04:07:47.447Z,8.30
2022-09-26T04:10:16.887Z,8.30
2022-09-26T04:12:46.520Z,8.30
2022-09-26T04:15:14.953Z,8.30
2022-09-26T04:17:43.303Z,8.20
2022-09-26T04:20:12.517Z,8.20
2022-09-26T04:22:42.036Z,8.20
2022-09-26T04:25:10.733Z,8.20
2022-09-26T04:27:39.132Z,8.20
2022-09-26T04:30:12.482Z,8.10
2022-09-26T04:32:41.881Z,8.10
2022-09-26T04:35:10.676Z,8.10
2022-09-26T04:37:38.809Z,8.10
2022-09-26T04:40:08.435Z,8.10
2022-09-26T04:42:38.427Z,8.10
2022-09-26T04:45:12.692Z,8.00
2022-09-26T04:47:41.114Z,8.00
2022-09-26T04:50:11.000Z,8.00
2022-09-26T04:52:39.277Z,8.00
2022-09-26T04:55:08.273Z,8.00
2022-09-26T04:57:37.655Z,8.00
2022-09-26T05:00:10.295Z,8.10
2022-09-26T05:02:41.319Z,8.00
2022-09-26T05:05:13.094Z,8.10
2022-09-26T05:07:42.935Z,8.00
2022-09-26T05:10:12.561Z,8.00
2022-09-26T05:12:41.949Z,8.00
2022-09-26T05:15:11.888Z,8.00
2022-09-26T05:17:45.369Z,8.00
2022-09-26T05:20:16.095Z,8.00
2022-09-26T05:22:44.185Z,7.90
2022-09-26T05:25:30.276Z,7.90
2022-09-26T05:27:58.388Z,7.90
2022-09-26T05:30:31.337Z,7.90
2022-09-26T05:33:01.820Z,7.90
2022-09-26T05:35:36.274Z,7.90
2022-09-26T05:38:07.199Z,7.90
2022-09-26T05:40:53.312Z,8.00
2022-09-26T05:43:25.478Z,8.00
2022-09-26T05:45:58.179Z,8.00
2022-09-26T05:48:30.144Z,8.00
2022-09-26T05:50:58.319Z,8.10
2022-09-26T05:53:26.404Z,8.20
2022-09-26T05:55:55.419Z,8.30
2022-09-26T05:58:23.497Z,8.40
2022-09-26T06:00:53.246Z,8.50
2022-09-26T06:03:28.354Z,8.60
2022-09-26T06:06:01.969Z,8.70
2022-09-26T06:08:33.487Z,8.80
2022-09-26T06:11:09.627Z,9.00
2022-09-26T06:13:39.588Z,9.10
2022-09-26T06:16:09.559Z,9.10
2022-09-26T06:18:41.399Z,9.30
2022-09-26T06:21:15.782Z,9.40
2022-09-26T06:23:45.262Z,9.50
2022-09-26T06:26:17.148Z,9.60
2022-09-26T06:28:46.197Z,9.60
2022-09-26T06:31:16.733Z,9.70
2022-09-26T06:33:47.620Z,9.80
2022-09-26T06:36:18.812Z,9.80
2022-09-26T06:38:47.611Z,9.90
2022-09-26T06:41:17.653Z,10.00
2022-09-26T06:43:47.025Z,10.10
2022-09-26T06:46:17.034Z,10.10
2022-09-26T06:48:46.192Z,10.20
2022-09-26T06:51:18.214Z,10.40
2022-09-26T06:53:46.687Z,10.50
2022-09-26T06:56:14.822Z,10.60
2022-09-26T06:58:44.106Z,10.60
2022-09-26T07:01:12.485Z,10.70
2022-09-26T07:03:45.413Z,10.80
2022-09-26T07:06:17.824Z,10.80
2022-09-26T07:09:04.697Z,10.90
2022-09-26T07:11:50.894Z,10.90
2022-09-26T07:14:26.068Z,10.90
2022-09-26T07:16:54.116Z,11.00
2022-09-26T07:19:22.527Z,11.00
2022-09-26T07:21:52.039Z,11.00
2022-09-26T07:24:23.061Z,11.00
2022-09-26T07:26:51.615Z,11.10
2022-09-26T07:29:22.379Z,11.20
2022-09-26T07:31:50.470Z,11.30
2022-09-26T07:34:25.537Z,11.40
2022-09-26T07:36:55.544Z,11.40
2022-09-26T07:39:23.903Z,11.40
2022-09-26T07:41:55.909Z,11.50
2022-09-26T07:47:32.147Z,11.60
2022-09-26T07:50:12.912Z,11.80
2022-09-26T07:52:46.786Z,12.00
2022-09-26T07:55:17.055Z,12.10
2022-09-26T07:57:46.648Z,12.20
2022-09-26T08:00:19.848Z,12.20
2022-09-26T08:02:47.733Z,12.30
2022-09-26T08:05:19.825Z,12.30
2022-09-26T08:07:53.393Z,12.40
2022-09-26T08:10:24.950Z,12.50
2022-09-26T08:12:55.440Z,12.60
2022-09-26T08:15:23.774Z,12.70
2022-09-26T08:17:55.000Z,12.80
2022-09-26T08:20:23.017Z,13.00
2022-09-26T08:22:56.022Z,13.10
2022-09-26T08:25:25.551Z,13.20
2022-09-26T08:27:59.739Z,13.20
2022-09-26T08:30:28.720Z,13.30
2022-09-26T08:33:02.998Z,13.50
2022-09-26T08:35:35.618Z,13.60
2022-09-26T08:38:05.604Z,13.80
2022-09-26T08:40:39.548Z,14.00
2022-09-26T08:43:14.633Z,14.10
2022-09-26T08:46:07.928Z,14.00
2022-09-26T08:48:52.335Z,14.10
2022-09-26T08:51:34.067Z,13.90
2022-09-26T08:54:11.359Z,13.80
2022-09-26T08:56:45.196Z,13.80
2022-09-26T08:59:19.761Z,13.70
2022-09-26T09:01:50.054Z,13.60
2022-09-26T09:04:24.463Z,13.60
2022-09-26T09:07:05.024Z,13.60
2022-09-26T09:09:34.658Z,13.60
2022-09-26T09:12:14.599Z,13.60
2022-09-26T09:15:24.706Z,13.50
2022-09-26T09:18:13.722Z,13.60
2022-09-26T09:20:54.242Z,13.90
2022-09-26T09:23:33.274Z,14.10
2022-09-26T09:29:39.108Z,14.40
2022-09-26T09:32:12.202Z,14.70
2022-09-26T09:34:42.351Z,14.80
2022-09-26T09:37:15.424Z,15.10
2022-09-26T09:39:45.275Z,15.20
2022-09-26T09:42:21.967Z,15.50
2022-09-26T09:44:54.578Z,15.80
2022-09-26T09:47:28.135Z,15.90
2022-09-26T09:49:59.638Z,16.10
2022-09-26T09:52:46.287Z,16.50
2022-09-26T09:55:26.792Z,16.70
2022-09-26T09:58:30.081Z,16.50
2022-09-26T10:01:09.834Z,16.60
2022-09-26T10:03:45.041Z,16.30
2022-09-26T10:06:45.294Z,16.20
2022-09-26T10:09:38.890Z,16.20
2022-09-26T10:12:01.901Z,16.50
2022-09-26T10:14:42.742Z,16.60
2022-09-26T10:17:22.485Z,16.60
2022-09-26T10:19:52.301Z,16.60
2022-09-26T10:22:30.126Z,16.50
2022-09-26T10:25:05.638Z,16.70
2022-09-26T10:27:38.118Z,16.80
2022-09-26T10:30:32.217Z,16.80
2022-09-26T10:33:03.408Z,16.80
2022-09-26T10:35:42.452Z,16.90
2022-09-26T10:38:22.262Z,16.90
2022-09-26T10:40:53.314Z,17.10
2022-09-26T10:43:23.951Z,17.30
2022-09-26T10:45:57.368Z,17.60
2022-09-26T10:48:37.857Z,17.80
2022-09-26T10:51:08.820Z,18.00
2022-09-26T10:53:41.578Z,18.30
2022-09-26T10:56:12.966Z,18.50
2022-09-26T10:58:44.794Z,18.20
2022-09-26T11:01:31.364Z,18.30
2022-09-26T11:04:13.956Z,18.50
2022-09-26T11:06:44.645Z,18.70
2022-09-26T11:09:20.406Z,18.60
2022-09-26T11:11:50.706Z,18.60
2022-09-26T11:14:29.402Z,18.30
2022-09-26T11:16:59.664Z,18.10
2022-09-26T11:19:39.880Z,17.90
2022-09-26T11:22:15.833Z,18.00
2022-09-26T11:24:53.568Z,18.00
2022-09-26T11:27:30.417Z,18.00
2022-09-26T11:30:04.589Z,18.10
2022-09-26T11:32:40.930Z,18.10
2022-09-26T11:35:15.500Z,17.80
2022-09-26T11:38:05.466Z,17.80
2022-09-26T11:40:56.038Z,17.60
2022-09-26T11:43:52.665Z,17.80
2022-09-26T11:46:39.886Z,17.80
2022-09-26T11:49:40.368Z,18.00
2022-09-26T11:52:23.991Z,18.10
2022-09-26T11:55:04.058Z,18.10
2022-09-26T11:57:42.421Z,18.10
2022-09-26T12:00:24.341Z,17.90
2022-09-26T12:03:20.092Z,18.00
2022-09-26T12:05:55.593Z,17.90
2022-09-26T12:08:34.467Z,17.70
2022-09-26T12:11:15.336Z,17.70
2022-09-26T12:13:54.136Z,17.80
2022-09-26T12:16:30.174Z,18.20
2022-09-26T12:19:06.104Z,18.30
2022-09-26T12:22:03.784Z,18.30
2022-09-26T12:24:43.316Z,18.40
2022-09-26T12:27:28.715Z,18.50
2022-09-26T12:30:05.870Z,18.60
2022-09-26T12:33:07.065Z,18.70
2022-09-26T12:35:45.312Z,18.60
2022-09-26T12:38:33.322Z,18.60
2022-09-26T12:41:17.963Z,18.00
2022-09-26T12:44:22.971Z,17.80
2022-09-26T12:47:09.085Z,17.60
2022-09-26T12:50:03.544Z,17.20
2022-09-26T12:53:10.704Z,16.60
2022-09-26T12:55:47.483Z,16.20
2022-09-26T12:58:31.720Z,16.10
2022-09-26T13:01:11.914Z,16.00
2022-09-26T13:03:57.686Z,15.80
2022-09-26T13:07:17.912Z,15.50
2022-09-26T13:10:15.255Z,15.10
2022-09-26T13:13:11.412Z,14.30
2022-09-26T13:15:48.199Z,13.90
2022-09-26T13:18:26.407Z,13.80
2022-09-26T13:21:00.227Z,13.80
2022-09-26T13:23:35.799Z,13.80
2022-09-26T13:26:09.614Z,13.80
2022-09-26T13:29:00.500Z,13.80
2022-09-26T13:31:35.659Z,14.00
2022-09-26T13:34:12.868Z,14.00
2022-09-26T13:36:42.951Z,14.10
2022-09-26T13:39:19.251Z,14.20
2022-09-26T13:41:54.153Z,14.20
2022-09-26T13:44:44.789Z,14.10
2022-09-26T13:47:22.858Z,14.10
2022-09-26T13:50:01.705Z,14.20
2022-09-26T13:52:53.916Z,14.30
2022-09-26T13:55:23.366Z,14.50
2022-09-26T13:58:07.287Z,14.60
2022-09-26T14:00:53.488Z,14.80
2022-09-26T14:04:13.415Z,14.90
2022-09-26T14:07:28.045Z,14.90
2022-09-26T14:10:09.292Z,15.00
2022-09-26T14:12:57.404Z,15.00
2022-09-26T14:15:28.374Z,15.00
2022-09-26T14:18:17.092Z,15.00
2022-09-26T14:20:59.242Z,14.90
2022-09-26T14:24:26.833Z,14.90
2022-09-26T14:27:04.283Z,15.00
2022-09-26T14:29:46.152Z,15.00
2022-09-26T14:32:18.807Z,15.10
2022-09-26T14:34:49.615Z,15.10
2022-09-26T14:37:36.617Z,15.30
2022-09-26T14:40:40.142Z,15.60
2022-09-26T14:43:21.076Z,15.70
2022-09-26T14:45:52.188Z,15.60
2022-09-26T14:48:38.127Z,15.50
2022-09-26T14:51:25.236Z,15.70
2022-09-26T14:54:01.294Z,15.70
2022-09-26T14:56:44.635Z,15.50
2022-09-26T14:59:29.978Z,15.50
2022-09-26T15:02:24.392Z,15.60
2022-09-26T15:05:02.148Z,15.60
2022-09-26T15:07:36.398Z,15.60
2022-09-26T15:10:09.892Z,15.70
2022-09-26T15:12:47.782Z,15.50
2022-09-26T15:15:32.537Z,15.50
2022-09-26T15:18:08.161Z,15.50
2022-09-26T15:20:44.245Z,15.50
2022-09-26T15:23:22.188Z,15.70
2022-09-26T15:25:54.147Z,15.60
2022-09-26T15:28:26.936Z,15.50
2022-09-26T15:31:21.073Z,15.40
2022-09-26T15:33:54.023Z,15.40
2022-09-26T15:36:24.948Z,15.30
2022-09-26T15:38:53.228Z,15.20
2022-09-26T15:41:36.451Z,15.20
2022-09-26T15:44:08.785Z,15.10
2022-09-26T15:46:38.096Z,15.20
2022-09-26T15:49:14.425Z,15.20
2022-09-26T15:51:45.804Z,15.10
2022-09-26T15:54:23.538Z,15.00
2022-09-26T15:56:54.432Z,15.00
2022-09-26T15:59:27.720Z,15.00
2022-09-26T16:01:58.915Z,15.00
2022-09-26T16:04:28.882Z,14.90
2022-09-26T16:07:01.231Z,14.90
2022-09-26T16:09:34.129Z,14.90
2022-09-26T16:12:05.193Z,14.80
2022-09-26T16:14:42.250Z,14.80
2022-09-26T16:17:23.558Z,14.80
2022-09-26T16:19:57.628Z,14.70
2022-09-26T16:22:44.629Z,14.60
2022-09-26T16:25:54.835Z,14.60
2022-09-26T16:28:42.413Z,14.60
2022-09-26T16:31:21.926Z,14.50
2022-09-26T16:33:53.259Z,14.40
2022-09-26T16:36:24.210Z,14.40
2022-09-26T16:38:59.763Z,14.40
2022-09-26T16:42:00.025Z,14.30
2022-09-26T16:44:34.493Z,14.30
2022-09-26T16:47:06.554Z,14.20
2022-09-26T16:49:45.747Z,14.20
2022-09-26T16:52:35.463Z,14.20
2022-09-26T16:55:06.925Z,14.20
2022-09-26T16:57:38.334Z,14.20
2022-09-26T17:00:33.749Z,14.20
2022-09-26T17:03:18.455Z,14.10
2022-09-26T17:05:46.720Z,14.10
2022-09-26T17:08:16.235Z,14.10
2022-09-26T17:10:46.136Z,14.10
2022-09-26T17:13:20.036Z,14.00
2022-09-26T17:15:48.825Z,14.00
2022-09-26T17:18:23.446Z,14.00
2022-09-26T17:20:52.301Z,14.00
2022-09-26T17:23:39.870Z,14.00
2022-09-26T17:26:14.801Z,14.00
2022-09-26T17:28:43.878Z,14.00
2022-09-26T17:31:19.455Z,13.90
2022-09-26T17:33:52.599Z,13.90
2022-09-26T17:36:23.262Z,13.90
2022-09-26T17:38:52.402Z,13.90
2022-09-26T17:41:25.276Z,13.80
2022-09-26T17:43:58.790Z,13.80
2022-09-26T17:46:28.274Z,13.80
2022-09-26T17:48:59.382Z,13.80
2022-09-26T17:51:29.309Z,13.80
2022-09-26T17:54:00.835Z,13.80
2022-09-26T17:56:28.868Z,13.70
2022-09-26T17:58:58.060Z,13.70
2022-09-26T18:01:27.642Z,13.70
2022-09-26T18:04:03.744Z,13.70
2022-09-26T18:06:33.993Z,13.70
2022-09-26T18:09:07.333Z,13.70
2022-09-26T18:11:36.332Z,13.70
2022-09-26T18:14:11.238Z,13.60
2022-09-26T18:16:42.158Z,13.60
2022-09-26T18:19:12.019Z,13.60
2022-09-26T18:21:43.151Z,13.60
2022-09-26T18:24:19.825Z,13.50
2022-09-26T18:26:51.738Z,13.50
2022-09-26T18:29:27.315Z,13.40
2022-09-26T18:31:58.840Z,13.40
2022-09-26T18:34:28.395Z,13.40
2022-09-26T18:37:00.003Z,13.40
2022-09-26T18:39:28.815Z,13.30
2022-09-26T18:42:02.263Z,13.20
2022-09-26T18:44:34.903Z,13.20
2022-09-26T18:47:05.860Z,13.20
2022-09-26T18:49:41.544Z,13.10
2022-09-26T18:52:15.633Z,13.10
2022-09-26T18:54:45.240Z,13.10
2022-09-26T18:57:31.960Z,13.00
2022-09-26T19:00:01.620Z,12.90
2022-09-26T19:02:38.250Z,12.70
2022-09-26T19:05:16.028Z,12.70
2022-09-26T19:07:45.094Z,12.60
2022-09-26T19:10:17.130Z,12.50
2022-09-26T19:12:45.390Z,12.50
2022-09-26T19:15:17.433Z,12.40
2022-09-26T19:17:45.424Z,12.30
2022-09-26T19:20:16.131Z,12.20
2022-09-26T19:22:44.446Z,12.10
2022-09-26T19:25:12.756Z,12.00
2022-09-26T19:27:47.927Z,11.90
2022-09-26T19:30:18.544Z,11.90
2022-09-26T19:32:49.594Z,11.80
2022-09-26T19:35:25.449Z,11.80
2022-09-26T19:37:54.184Z,11.80
2022-09-26T19:40:24.888Z,11.80
2022-09-26T19:42:57.500Z,11.80
2022-09-26T19:45:32.065Z,11.80
2022-09-26T19:48:01.685Z,11.90
2022-09-26T19:50:35.496Z,11.90
2022-09-26T19:53:04.841Z,11.90
2022-09-26T19:55:33.467Z,11.90
2022-09-26T19:58:08.106Z,12.00
2022-09-26T20:00:43.186Z,11.90
2022-09-26T20:03:18.310Z,11.90
2022-09-26T20:05:50.401Z,11.90
2022-09-26T20:08:22.052Z,11.90
2022-09-26T20:10:50.832Z,11.90
2022-09-26T20:13:20.237Z,11.90
2022-09-26T20:15:50.334Z,11.90
2022-09-26T20:18:22.250Z,11.80
2022-09-26T20:20:57.858Z,11.90
2022-09-26T20:23:28.575Z,11.90
2022-09-26T20:26:00.581Z,11.80
2022-09-26T20:28:29.128Z,11.80
2022-09-26T20:30:56.774Z,11.80
2022-09-26T20:33:26.535Z,11.80
2022-09-26T20:36:02.923Z,11.80
2022-09-26T20:38:38.601Z,11.80
2022-09-26T20:41:13.174Z,11.80
2022-09-26T20:43:44.557Z,11.80
2022-09-26T20:46:14.207Z,11.70
2022-09-26T20:48:44.212Z,11.70
2022-09-26T20:51:19.581Z,11.70
2022-09-26T20:53:48.575Z,11.70
2022-09-26T20:56:21.247Z,11.70
2022-09-26T20:58:50.132Z,11.60
2022-09-26T21:01:20.355Z,11.60
2022-09-26T21:03:50.841Z,11.50
2022-09-26T21:06:23.617Z,11.50
2022-09-26T21:08:52.148Z,11.50
2022-09-26T21:11:22.104Z,11.40
2022-09-26T21:13:50.745Z,11.40
2022-09-26T21:16:21.188Z,11.40
2022-09-26T21:18:52.997Z,11.40
2022-09-26T21:21:25.265Z,11.30
2022-09-26T21:23:54.883Z,11.30
2022-09-26T21:26:25.146Z,11.30
2022-09-26T21:28:54.830Z,11.30
2022-09-26T21:31:26.966Z,11.30
2022-09-26T21:33:56.745Z,11.20
2022-09-26T21:36:34.060Z,11.20
2022-09-26T21:39:04.098Z,11.10
2022-09-26T21:41:32.474Z,11.10
2022-09-26T21:44:04.535Z,11.10
2022-09-26T21:46:33.011Z,11.10
2022-09-26T21:49:01.365Z,11.10
2022-09-26T21:51:32.511Z,11.00
2022-09-26T21:54:05.603Z,11.10
2022-09-26T21:56:35.577Z,11.00
2022-09-26T21:59:07.561Z,10.90
2022-09-26T22:01:35.875Z,10.90
2022-09-26T22:04:04.180Z,10.80
2022-09-26T22:06:34.848Z,10.80
2022-09-26T22:09:03.287Z,10.80
2022-09-26T22:11:32.642Z,10.80
2022-09-26T22:14:00.830Z,10.70
2022-09-26T22:16:29.417Z,10.70
2022-09-26T22:18:58.040Z,10.70
2022-09-26T22:21:26.382Z,10.70
2022-09-26T22:23:57.675Z,10.70
2022-09-26T22:26:25.982Z,10.60
2022-09-26T22:28:54.394Z,10.60
2022-09-26T22:31:23.231Z,10.60
2022-09-26T22:33:51.744Z,10.60
2022-09-26T22:36:19.866Z,10.60
2022-09-26T22:38:48.071Z,10.50
2022-09-26T22:41:18.100Z,10.50
2022-09-26T22:43:47.076Z,10.50
2022-09-26T22:46:16.924Z,10.50
2022-09-26T22:48:46.814Z,10.50
2022-09-26T22:51:16.691Z,10.60
2022-09-26T22:53:46.036Z,10.60
2022-09-26T22:56:18.157Z,10.60
2022-09-26T22:58:51.220Z,10.50
2022-09-26T23:01:22.581Z,10.50
2022-09-26T23:03:52.938Z,10.60
2022-09-26T23:06:22.168Z,10.60
2022-09-26T23:08:50.586Z,10.50
2022-09-26T23:11:20.861Z,10.50
2022-09-26T23:13:52.495Z,10.50
2022-09-26T23:16:23.478Z,10.50
2022-09-26T23:18:52.804Z,10.50
2022-09-26T23:21:22.977Z,10.50
2022-09-26T23:23:53.178Z,10.50
2022-09-26T23:26:23.823Z,10.50
2022-09-26T23:28:56.591Z,10.50
2022-09-26T23:31:26.323Z,10.50
2022-09-26T23:33:55.425Z,10.50
2022-09-26T23:36:24.621Z,10.50
2022-09-26T23:38:53.502Z,10.50
2022-09-26T23:41:21.760Z,10.50
2022-09-26T23:43:50.281Z,10.40
2022-09-26T23:46:20.521Z,10.50
2022-09-26T23:48:49.013Z,10.40
2022-09-26T23:51:17.436Z,10.40
2022-09-26T23:53:45.753Z,10.40
2022-09-26T23:56:15.843Z,10.40
2022-09-26T23:58:44.827Z,10.40
